メインページ
METAR-TAF:

METAR-TAF

空港 :

マレ, Hulhule Island, モルディブ

イブラヒム・ナシル国際空港

緯度: 04-12N, 経度: 073-32E, 海抜: 2m

現時点の気象観測

当レポートは31分前の16:00(UTC)に作成
西/南西の風 6kt
気温 30°C
湿度 79%
気圧 1012 hPa
視程10km以上
高度1800ftの雲はほとんどない, 塔状積雲.

METAR: VRMM 221600Z 25006KT 9999 FEW018TCU 30/26 Q1012 NOSIG

時間: 21:31 (16:31 UTC)

予報

当レポートは5時間31分前の11:00(UTC)に作成
予報は22日の 12時(UTC)から 23日の 18時(UTC)まで有効
西/南西の風 7kt
視程10km以上
高度1800ftの雲はほとんどない
22日の 13時(UTC)から 22日の 18時(UTC)まで一時的に
視程: 5000m
高度1700ftの雲は散在している
高度1800ftの雲はほとんどない, 積乱雲.
弱いにわか雨

TAF: VRMM 221100Z 2212/2318 25007KT 9999 FEW018 TEMPO 2213/2218 5000 -SHRA SCT017 FEW018CB

4,000以上の空港の気象観測と天気予報(METAR報とTAF報)

利用可能な観測所は地図上に黄色い丸と赤い丸で示す。

丸の上にカーソルを重ねると観測所名を参照できる。

次にクリックすると気象観測と天気予報を参照できる。

マップの切り替え:黒色「×」印の緑ボタンをクリックして拡大、「-」印の緑ボタンをクリックして縮小、緑色の三角印をクリックして隣りの地図に切り替え


METAR-TAF: